Time;durP1;ratioP1;P1;durP2;ratioP2;P2;SDS_P1;SDS_P2;PMS_P1;PMS_P2;Temp;Humidity;BMP_temperature;BMP_pressure;BME280_temperature;BME280_humidity;BME280_pressure;Samples;Min_cycle;Max_cycle;Signal;HPM_P1;HPM_P2
2022/03/30 00:00:31;;;;;;;25.48;6.82;;;11.40;87.90;;;;;;4900987;29;20048;-71
2022/03/30 00:03:04;;;;;;;25.77;8.88;;;11.40;87.40;;;;;;4915205;29;20058;-72
2022/03/30 00:05:36;;;;;;;27.60;7.22;;;11.50;85.00;;;;;;4900651;29;20075;-71
2022/03/30 00:08:08;;;;;;;26.73;7.10;;;11.60;83.30;;;;;;4916706;29;20408;-72
2022/03/30 00:10:39;;;;;;;21.60;6.88;;;11.60;83.20;;;;;;4915373;29;20136;-72
2022/03/30 00:13:11;;;;;;;19.02;6.65;;;11.70;83.20;;;;;;4916199;29;20045;-72
2022/03/30 00:15:44;;;;;;;27.40;7.43;;;11.70;84.60;;;;;;4915655;29;20066;-72
2022/03/30 00:18:16;;;;;;;24.00;8.57;;;11.70;87.20;;;;;;4915425;29;20072;-72
2022/03/30 00:20:47;;;;;;;26.20;8.25;;;11.60;88.10;;;;;;4916846;29;20052;-72
2022/03/30 00:23:19;;;;;;;15.77;6.22;;;11.50;89.20;;;;;;4915328;29;20515;-72
2022/03/30 00:25:51;;;;;;;26.95;6.32;;;11.40;90.00;;;;;;4915482;29;20052;-71
2022/03/30 00:28:27;;;;;;;33.90;9.52;;;11.30;90.80;;;;;;4915130;29;20052;-72
2022/03/30 00:30:59;;;;;;;28.60;7.50;;;11.20;91.30;;;;;;4914728;29;20134;-72
2022/03/30 00:33:30;;;;;;;21.48;7.43;;;11.10;91.50;;;;;;4915353;29;20083;-72
2022/03/30 00:35:57;;;;;;;29.15;7.47;;;11.00;91.60;;;;;;4915190;29;20048;-72
2022/03/30 00:38:29;;;;;;;23.35;6.70;;;11.00;92.50;;;;;;4899286;29;20055;-72
2022/03/30 00:41:01;;;;;;;19.30;6.90;;;10.90;92.70;;;;;;4914564;29;20099;-72
2022/03/30 00:43:34;;;;;;;30.25;8.57;;;10.90;93.30;;;;;;4900018;29;20052;-72
2022/03/30 00:46:05;;;;;;;20.43;7.47;;;10.90;93.00;;;;;;4916439;29;20507;-72
2022/03/30 00:48:37;;;;;;;21.17;6.70;;;10.80;93.40;;;;;;4914682;29;20054;-72
2022/03/30 00:51:09;;;;;;;25.40;7.65;;;10.70;94.30;;;;;;4914683;29;20554;-70
2022/03/30 00:53:41;;;;;;;24.88;7.25;;;10.70;94.60;;;;;;4915912;29;20044;-72
2022/03/30 00:56:13;;;;;;;25.55;6.50;;;10.70;95.10;;;;;;4914864;29;20075;-72
2022/03/30 00:58:45;;;;;;;26.95;6.93;;;10.60;95.30;;;;;;4914740;29;20464;-72
2022/03/30 01:01:11;;;;;;;22.60;7.78;;;10.60;95.90;;;;;;4913667;29;20424;-72
2022/03/30 01:03:43;;;;;;;25.27;8.05;;;10.60;96.40;;;;;;4915256;29;20052;-72
2022/03/30 01:06:15;;;;;;;29.02;7.22;;;10.50;97.10;;;;;;4913971;29;20050;-72
2022/03/30 01:08:48;;;;;;;29.70;9.10;;;10.50;97.60;;;;;;4915448;29;20044;-71
2022/03/30 01:11:21;;;;;;;18.38;7.00;;;10.40;97.70;;;;;;4913432;29;20056;-72
2022/03/30 01:13:53;;;;;;;;;;;10.40;97.40;;;;;;4914281;29;20051;-71
2022/03/30 01:16:21;;;;;;;25.92;6.90;;;10.40;96.90;;;;;;4913673;29;19923;-71
2022/03/30 01:19:05;;;;;;;27.00;6.47;;;10.50;96.50;;;;;;4915136;29;20523;-71
2022/03/30 01:21:39;;;;;;;23.15;6.82;;;10.50;97.30;;;;;;4912990;29;20711;-70
2022/03/30 01:24:13;;;;;;;22.70;8.27;;;10.50;96.70;;;;;;4913738;29;20802;-71
2022/03/30 01:26:44;;;;;;;20.77;7.25;;;10.50;96.20;;;;;;4913326;29;20050;-71
2022/03/30 01:32:26;;;;;;;31.73;7.90;;;10.50;96.10;;;;;;4914306;29;20044;-71
2022/03/30 01:35:00;;;;;;;29.92;7.40;;;10.50;95.20;;;;;;4913409;29;20052;-71
2022/03/30 01:37:33;;;;;;;26.42;7.10;;;10.60;94.90;;;;;;4913398;29;20036;-70
2022/03/30 01:40:06;;;;;;;25.25;6.72;;;10.60;95.50;;;;;;4898331;29;20091;-70
2022/03/30 01:42:38;;;;;;;25.35;7.43;;;10.60;95.90;;;;;;4897660;29;20049;-71
2022/03/30 01:45:12;;;;;;;16.38;7.32;;;10.60;96.20;;;;;;4913361;29;20048;-71
2022/03/30 01:47:58;;;;;;;31.88;7.55;;;10.50;96.60;;;;;;4913473;29;20044;-72
2022/03/30 01:50:34;;;;;;;31.33;7.50;;;10.50;96.60;;;;;;4914353;29;20075;-71
2022/03/30 01:53:06;;;;;;;22.77;7.15;;;10.50;97.40;;;;;;4913965;29;20048;-71
2022/03/30 01:55:38;;;;;;;32.08;8.88;;;10.50;96.40;;;;;;4914382;29;20127;-70
2022/03/30 01:58:09;;;;;;;18.38;6.47;;;10.50;96.20;;;;;;4914457;29;20055;-71
2022/03/30 02:00:41;;;;;;;20.48;6.45;;;10.40;97.00;;;;;;4913327;29;20087;-71
2022/03/30 02:03:13;;;;;;;26.98;7.40;;;10.40;96.20;;;;;;4897496;29;20056;-71
2022/03/30 02:05:45;;;;;;;21.23;7.65;;;10.50;96.10;;;;;;4898207;29;20048;-71
2022/03/30 02:08:17;;;;;;;30.63;8.55;;;10.50;96.00;;;;;;4913898;29;20530;-72
2022/03/30 02:10:49;;;;;;;26.95;8.45;;;10.50;96.00;;;;;;4913421;29;20054;-71
2022/03/30 02:13:21;;;;;;;22.08;8.00;;;10.50;96.40;;;;;;4912875;29;20052;-71
2022/03/30 02:15:53;;;;;;;26.77;7.23;;;10.40;97.40;;;;;;4912992;29;20048;-71
2022/03/30 02:18:25;;;;;;;23.02;8.10;;;10.30;98.20;;;;;;4912765;29;20280;-71
2022/03/30 02:20:56;;;;;;;25.60;7.55;;;10.20;98.00;;;;;;4897459;29;20832;-71
2022/03/30 02:23:28;;;;;;;25.38;8.85;;;10.10;98.60;;;;;;4912686;29;20048;-72
2022/03/30 02:26:00;;;;;;;26.27;8.70;;;10.20;98.10;;;;;;4913982;29;20048;-71
2022/03/30 02:28:32;;;;;;;31.92;9.35;;;10.20;97.30;;;;;;4912980;29;20131;-71
2022/03/30 02:31:04;;;;;;;20.65;6.30;;;10.20;97.80;;;;;;4913699;29;20076;-71
2022/03/30 02:33:36;;;;;;;25.25;8.15;;;10.20;98.60;;;;;;4912789;29;20036;-72
2022/03/30 02:36:07;;;;;;;19.98;6.63;;;10.10;99.40;;;;;;4913952;29;20524;-71
2022/03/30 02:38:40;;;;;;;25.45;6.70;;;10.10;99.10;;;;;;4913865;29;20518;-73
2022/03/30 02:41:12;;;;;;;30.02;8.15;;;10.10;99.40;;;;;;4912222;29;20052;-71
2022/03/30 02:43:44;;;;;;;25.60;8.63;;;10.00;98.80;;;;;;4912509;29;20056;-71
2022/03/30 02:46:11;;;;;;;26.35;7.80;;;10.00;99.00;;;;;;4912620;29;20048;-71
2022/03/30 02:48:42;;;;;;;20.75;7.22;;;10.10;99.30;;;;;;4912587;29;20055;-71
2022/03/30 02:51:14;;;;;;;23.30;7.55;;;10.00;99.60;;;;;;4896999;29;20415;-71
2022/03/30 02:53:46;;;;;;;33.20;8.95;;;10.00;99.10;;;;;;4913658;29;20048;-71
2022/03/30 02:56:18;;;;;;;23.52;8.32;;;10.00;98.80;;;;;;4912606;29;20040;-71
2022/03/30 02:58:49;;;;;;;21.33;7.57;;;10.00;98.70;;;;;;4912666;29;20052;-71
2022/03/30 03:01:21;;;;;;;24.42;8.13;;;10.10;98.00;;;;;;4913229;29;20623;-71
2022/03/30 03:03:53;;;;;;;22.92;7.30;;;10.10;97.60;;;;;;4916147;29;20495;-71
2022/03/30 03:06:26;;;;;;;21.10;6.75;;;10.20;97.10;;;;;;4916017;29;20052;-71
2022/03/30 03:08:58;;;;;;;27.65;8.10;;;10.20;97.10;;;;;;4922942;29;20122;-71
2022/03/30 03:11:29;;;;;;;23.23;7.85;;;10.30;96.50;;;;;;4925577;29;20051;-73
2022/03/30 03:14:05;;;;;;;19.40;6.03;;;10.30;95.80;;;;;;4931573;29;20126;-72
2022/03/30 03:16:36;;;;;;;23.75;7.20;;;10.30;95.50;;;;;;4935131;29;20051;-72
2022/03/30 03:19:08;;;;;;;22.50;6.93;;;10.40;93.60;;;;;;4938366;29;20054;-72
2022/03/30 03:21:40;;;;;;;21.38;6.43;;;10.60;93.10;;;;;;4922231;29;20079;-71
2022/03/30 03:24:12;;;;;;;26.30;9.15;;;10.60;93.30;;;;;;4938907;29;20491;-71
2022/03/30 03:26:44;;;;;;;19.75;7.28;;;10.60;92.80;;;;;;4938887;29;20517;-72
2022/03/30 03:29:15;;;;;;;22.23;7.30;;;10.70;92.20;;;;;;4938528;29;20075;-72
2022/03/30 03:31:47;;;;;;;27.20;6.97;;;10.70;92.10;;;;;;4921783;29;20048;-72
2022/03/30 03:34:19;;;;;;;24.67;7.28;;;10.70;92.10;;;;;;4936853;29;20525;-72
2022/03/30 03:36:51;;;;;;;29.70;7.35;;;10.70;91.70;;;;;;4936627;29;20070;-72
2022/03/30 03:39:22;;;;;;;28.17;7.93;;;10.80;91.80;;;;;;4935736;29;20490;-71
2022/03/30 03:41:54;;;;;;;29.88;7.72;;;10.80;91.40;;;;;;4933223;29;20071;-72
2022/03/30 03:44:26;;;;;;;23.58;6.95;;;10.80;91.60;;;;;;4934988;29;20147;-72
2022/03/30 03:46:57;;;;;;;26.77;7.45;;;10.80;91.60;;;;;;4936515;29;20542;-72
2022/03/30 03:49:29;;;;;;;22.27;6.53;;;10.70;91.70;;;;;;4919855;29;20048;-72
2022/03/30 03:52:02;;;;;;;28.60;6.68;;;10.70;92.10;;;;;;4935595;29;20406;-72
2022/03/30 03:54:33;;;;;;;29.08;7.00;;;10.60;92.30;;;;;;4935048;29;20094;-72
2022/03/30 03:57:05;;;;;;;23.63;7.05;;;10.60;92.20;;;;;;4936124;29;20040;-72
2022/03/30 03:59:37;;;;;;;23.65;6.85;;;10.60;92.40;;;;;;4934906;29;20051;-72
2022/03/30 04:02:09;;;;;;;21.85;6.40;;;10.70;92.50;;;;;;4935640;29;20058;-72
2022/03/30 04:04:41;;;;;;;22.60;6.95;;;10.70;92.30;;;;;;4936122;29;20048;-71
2022/03/30 04:07:07;;;;;;;24.70;7.00;;;10.70;91.90;;;;;;4934514;29;20048;-72
2022/03/30 04:09:39;;;;;;;24.70;6.90;;;10.70;91.90;;;;;;4926793;29;20391;-72
2022/03/30 04:12:11;;;;;;;23.83;7.18;;;10.70;92.00;;;;;;4915246;29;20123;-72
2022/03/30 04:14:42;;;;;;;25.80;6.38;;;10.70;92.30;;;;;;4915389;29;20040;-72
2022/03/30 04:17:14;;;;;;;24.23;6.57;;;10.70;92.20;;;;;;4916630;29;20070;-74
2022/03/30 04:19:46;;;;;;;21.95;7.13;;;10.70;92.10;;;;;;4916288;29;20052;-72
2022/03/30 04:22:18;;;;;;;24.13;7.45;;;10.60;92.00;;;;;;4914545;29;20052;-72
2022/03/30 04:24:44;;;;;;;23.25;6.72;;;10.70;92.30;;;;;;4916568;29;20140;-72
2022/03/30 04:27:16;;;;;;;22.35;7.18;;;10.60;91.80;;;;;;4916110;29;20035;-72
2022/03/30 04:29:48;;;;;;;20.77;6.70;;;10.60;91.90;;;;;;4914670;29;20055;-72
2022/03/30 04:32:20;;;;;;;35.05;7.60;;;10.60;91.90;;;;;;4899143;29;20045;-72
2022/03/30 04:34:51;;;;;;;39.42;8.73;;;10.60;92.20;;;;;;4914771;29;20054;-72
2022/03/30 04:37:23;;;;;;;26.65;7.03;;;10.60;91.80;;;;;;4914633;29;20048;-72
2022/03/30 04:39:50;;;;;;;21.48;7.13;;;10.60;91.60;;;;;;4914673;29;20229;-72
2022/03/30 04:42:21;;;;;;;18.92;5.60;;;10.60;91.50;;;;;;4913955;29;20054;-72
2022/03/30 04:44:48;;;;;;;20.23;7.07;;;10.60;91.90;;;;;;4914429;29;20040;-72
2022/03/30 04:47:20;;;;;;;25.27;6.85;;;10.60;92.10;;;;;;4899665;29;20050;-72
2022/03/30 04:49:52;;;;;;;25.77;6.88;;;10.60;92.10;;;;;;4914638;29;20055;-72
2022/03/30 04:52:23;;;;;;;24.83;8.52;;;10.60;92.20;;;;;;4910928;29;20043;-72
2022/03/30 04:54:55;;;;;;;29.73;7.10;;;10.60;92.10;;;;;;4909464;29;20419;-72
2022/03/30 04:57:22;;;;;;;29.25;7.22;;;10.60;92.20;;;;;;4912879;29;20507;-72
2022/03/30 04:59:53;;;;;;;26.77;6.53;;;10.70;92.30;;;;;;4913371;29;20051;-72
2022/03/30 05:02:26;;;;;;;24.17;6.30;;;10.70;92.50;;;;;;4910683;29;20050;-72
2022/03/30 05:04:53;;;;;;;26.38;7.38;;;10.60;92.90;;;;;;4916184;29;20477;-72
2022/03/30 05:07:25;;;;;;;24.83;6.55;;;10.60;93.20;;;;;;4929740;29;20118;-72
2022/03/30 05:09:57;;;;;;;28.45;6.68;;;10.60;93.60;;;;;;4913624;29;20067;-72
2022/03/30 05:12:29;;;;;;;24.92;7.05;;;10.60;95.20;;;;;;4929439;29;20044;-72
2022/03/30 05:15:01;;;;;;;29.67;7.40;;;10.60;94.90;;;;;;4930515;29;20035;-72
2022/03/30 05:17:33;;;;;;;29.05;7.13;;;10.50;95.90;;;;;;4930746;29;20387;-73
2022/03/30 05:20:06;;;;;;;26.73;6.97;;;10.50;95.60;;;;;;4929370;29;20462;-72
2022/03/30 05:22:38;;;;;;;;;;;10.50;96.30;;;;;;4929776;29;20039;-71
2022/03/30 05:25:12;;;;;;;29.02;7.80;;;10.50;96.60;;;;;;4930465;29;20476;-72
2022/03/30 05:27:43;;;;;;;18.73;6.40;;;10.50;97.20;;;;;;4928071;29;20515;-70
2022/03/30 05:30:15;;;;;;;21.95;6.60;;;10.50;97.60;;;;;;4916177;29;20071;-72
2022/03/30 05:32:48;;;;;;;26.92;8.48;;;10.40;97.90;;;;;;4931542;29;20039;-72
2022/03/30 05:35:19;;;;;;;20.55;6.50;;;10.40;98.00;;;;;;4930286;29;20102;-72
2022/03/30 05:37:51;;;;;;;24.50;7.72;;;10.30;99.30;;;;;;4931547;29;20043;-72
2022/03/30 05:40:23;;;;;;;26.65;6.93;;;10.40;99.10;;;;;;4932242;29;20048;-71
2022/03/30 05:42:55;;;;;;;20.80;7.05;;;10.30;99.90;;;;;;4932436;29;20102;-71
2022/03/30 05:45:26;;;;;;;25.85;7.82;;;10.30;99.90;;;;;;4916395;29;20760;-72
2022/03/30 05:47:59;;;;;;;29.40;6.60;;;10.20;99.90;;;;;;4932793;29;20507;-72
2022/03/30 05:50:26;;;;;;;25.45;6.65;;;10.20;99.90;;;;;;4932587;29;20054;-72
2022/03/30 05:52:58;;;;;;;24.65;6.80;;;10.10;99.90;;;;;;4915769;29;20056;-72
2022/03/30 05:55:31;;;;;;;26.02;6.68;;;10.10;99.90;;;;;;4931420;29;20078;-71
2022/03/30 05:58:03;;;;;;;21.30;7.18;;;10.00;99.90;;;;;;4931550;29;20118;-72
2022/03/30 06:00:35;;;;;;;23.17;6.85;;;10.00;99.90;;;;;;4931432;29;20147;-72
2022/03/30 06:03:08;;;;;;;23.92;7.45;;;9.90;99.90;;;;;;4930909;29;20055;-72
2022/03/30 06:05:39;;;;;;;24.00;6.97;;;9.80;99.90;;;;;;4932539;29;20060;-72
2022/03/30 06:08:11;;;;;;;27.38;7.32;;;9.90;99.90;;;;;;4893884;29;1098144;-72
2022/03/30 06:10:43;;;;;;;28.02;7.22;;;9.80;99.90;;;;;;4933205;29;20063;-72
2022/03/30 06:13:15;;;;;;;30.42;8.48;;;9.80;99.90;;;;;;4932589;29;20053;-72
2022/03/30 06:15:47;;;;;;;30.38;7.25;;;9.80;99.90;;;;;;4931839;29;20130;-71
2022/03/30 06:18:19;;;;;;;25.50;9.50;;;9.80;99.90;;;;;;4931838;29;20040;-72
2022/03/30 06:20:51;;;;;;;29.13;6.60;;;9.80;99.90;;;;;;4931927;29;20058;-71
2022/03/30 06:23:23;;;;;;;28.90;7.38;;;9.80;99.90;;;;;;4931684;29;20048;-72
2022/03/30 06:25:55;;;;;;;28.48;7.38;;;9.80;99.90;;;;;;4916803;29;20057;-72
2022/03/30 06:28:27;;;;;;;32.78;8.00;;;9.80;99.90;;;;;;4931933;29;20047;-72
2022/03/30 06:30:58;;;;;;;25.73;7.22;;;9.70;99.90;;;;;;4916160;29;20150;-72
2022/03/30 06:33:25;;;;;;;28.73;7.28;;;9.70;99.90;;;;;;4931524;29;20039;-72
2022/03/30 06:35:57;;;;;;;25.48;8.60;;;9.70;99.90;;;;;;4933339;29;20044;-72
2022/03/30 06:38:29;;;;;;;19.00;7.25;;;9.70;99.90;;;;;;4935490;29;20043;-72
2022/03/30 06:41:01;;;;;;;22.08;6.30;;;9.70;99.90;;;;;;4920028;29;20474;-71
2022/03/30 06:43:33;;;;;;;23.02;7.25;;;9.60;99.90;;;;;;4920398;29;20094;-72
2022/03/30 06:46:05;;;;;;;27.02;7.78;;;9.60;99.90;;;;;;4935445;29;20067;-72
2022/03/30 06:48:37;;;;;;;29.15;9.00;;;9.60;99.90;;;;;;4920373;29;20070;-73
2022/03/30 06:51:09;;;;;;;25.10;8.07;;;9.70;99.90;;;;;;4935339;29;20421;-72
2022/03/30 06:53:42;;;;;;;23.73;8.63;;;9.60;99.90;;;;;;4901571;29;20086;-72
2022/03/30 06:56:14;;;;;;;30.92;10.50;;;9.60;99.90;;;;;;4914544;29;20047;-70
2022/03/30 06:58:46;;;;;;;24.20;6.47;;;9.60;99.90;;;;;;4915055;29;20032;-72
2022/03/30 07:01:14;;;;;;;22.45;8.25;;;9.60;99.90;;;;;;4913873;29;20146;-72
2022/03/30 07:03:46;;;;;;;38.55;9.20;;;9.60;99.90;;;;;;4912101;29;20071;-72
2022/03/30 07:06:18;;;;;;;24.45;7.57;;;9.60;99.90;;;;;;4915724;29;20062;-72
2022/03/30 07:11:40;;;;;;;26.73;9.18;;;9.60;99.90;;;;;;4909042;29;20500;-72
2022/03/30 07:14:12;;;;;;;28.65;8.02;;;9.70;99.90;;;;;;4915890;29;20044;-72
2022/03/30 07:16:44;;;;;;;31.10;7.68;;;9.60;99.90;;;;;;4916018;29;20048;-70
2022/03/30 07:19:15;;;;;;;27.20;9.45;;;9.60;99.90;;;;;;4916394;29;20071;-73
2022/03/30 07:21:47;;;;;;;28.50;8.23;;;9.60;99.90;;;;;;4900864;29;20048;-73
2022/03/30 07:24:19;;;;;;;24.35;8.25;;;9.60;99.90;;;;;;4915438;29;20817;-71
2022/03/30 07:26:51;;;;;;;25.88;7.95;;;9.70;99.90;;;;;;4914513;29;20068;-72
2022/03/30 07:29:17;;;;;;;26.33;7.68;;;9.70;99.90;;;;;;4928071;29;20039;-71
2022/03/30 07:31:49;;;;;;;25.38;8.73;;;9.60;99.90;;;;;;4914369;29;20139;-73
2022/03/30 07:34:21;;;;;;;29.05;10.18;;;9.70;99.90;;;;;;4911904;29;20040;-71
2022/03/30 07:36:53;;;;;;;28.27;8.15;;;9.80;99.90;;;;;;4918077;29;20052;-73
2022/03/30 07:39:24;;;;;;;19.48;7.80;;;9.80;99.90;;;;;;4931449;29;20043;-73
2022/03/30 07:41:56;;;;;;;27.35;9.63;;;9.90;99.90;;;;;;4929673;29;20055;-72
2022/03/30 07:44:28;;;;;;;42.45;9.52;;;9.90;99.90;;;;;;4932447;29;20039;-73
2022/03/30 07:46:55;;;;;;;24.77;8.57;;;9.80;99.90;;;;;;4929905;29;20051;-73
2022/03/30 07:49:27;;;;;;;26.52;7.80;;;9.80;99.90;;;;;;4906255;29;20047;-73
2022/03/30 07:52:03;;;;;;;30.15;10.13;;;9.80;99.90;;;;;;4914164;29;20139;-72
2022/03/30 07:54:34;;;;;;;28.33;8.50;;;9.80;99.90;;;;;;4933809;29;20155;-72
2022/03/30 07:57:06;;;;;;;25.65;8.55;;;9.80;99.90;;;;;;4916611;29;20579;-71
2022/03/30 07:59:33;;;;;;;27.30;8.45;;;9.80;99.90;;;;;;4925075;29;20439;-73
2022/03/30 08:02:05;;;;;;;28.73;8.90;;;9.90;99.90;;;;;;4909392;29;20127;-72
2022/03/30 08:04:36;;;;;;;30.42;8.68;;;9.90;99.90;;;;;;4900788;29;20724;-73
2022/03/30 08:07:08;;;;;;;29.73;8.38;;;9.90;99.90;;;;;;4914400;29;20131;-73
2022/03/30 08:09:42;;;;;;;32.72;10.30;;;9.90;99.90;;;;;;4925449;29;20075;-72
2022/03/30 08:12:14;;;;;;;;;;;9.90;99.90;;;;;;4927839;29;20067;-73
2022/03/30 08:14:47;;;;;;;25.55;7.82;;;10.00;99.90;;;;;;4928896;29;19958;-72
2022/03/30 08:17:19;;;;;;;25.05;8.48;;;10.10;99.90;;;;;;4913632;29;20134;-72
2022/03/30 08:19:51;;;;;;;28.20;8.32;;;10.20;99.90;;;;;;4924836;29;20046;-73
2022/03/30 08:22:28;;;;;;;24.88;8.57;;;10.20;99.90;;;;;;4930681;29;20047;-72
2022/03/30 08:25:07;;;;;;;20.33;7.97;;;10.30;99.90;;;;;;4916116;29;20123;-72
2022/03/30 08:27:40;;;;;;;31.88;7.85;;;10.30;99.90;;;;;;4932249;29;20127;-72
2022/03/30 08:30:11;;;;;;;24.60;6.90;;;10.40;99.90;;;;;;4930822;29;20411;-72
2022/03/30 08:32:43;;;;;;;28.60;8.98;;;10.50;99.90;;;;;;4915472;29;20315;-71
2022/03/30 08:35:15;;;;;;;28.30;9.13;;;10.50;99.90;;;;;;4916295;29;20051;-71
2022/03/30 08:37:47;;;;;;;33.47;8.75;;;10.60;99.90;;;;;;4925080;29;20238;-72
2022/03/30 08:40:19;;;;;;;22.50;7.63;;;10.50;99.90;;;;;;4930907;29;20051;-73
2022/03/30 08:42:53;;;;;;;31.80;8.65;;;10.50;99.90;;;;;;4930389;29;20051;-72
2022/03/30 08:45:25;;;;;;;28.63;8.07;;;10.40;99.90;;;;;;4929285;29;20133;-71
2022/03/30 08:47:56;;;;;;;25.58;9.43;;;10.40;99.90;;;;;;4915964;29;20139;-72
2022/03/30 08:50:29;;;;;;;30.08;6.93;;;10.40;99.90;;;;;;4916097;29;20047;-72
2022/03/30 08:53:04;;;;;;;23.60;8.35;;;10.50;99.90;;;;;;4915038;29;20487;-72
2022/03/30 08:55:36;;;;;;;25.08;7.63;;;10.50;99.90;;;;;;4931227;29;20044;-72
2022/03/30 08:58:03;;;;;;;24.63;7.70;;;10.50;99.90;;;;;;4931143;29;20052;-71
2022/03/30 09:00:35;;;;;;;26.40;7.22;;;10.60;99.90;;;;;;4912563;29;20047;-72
2022/03/30 09:03:07;;;;;;;29.60;8.63;;;10.50;99.90;;;;;;4931542;29;20585;-72
2022/03/30 09:05:39;;;;;;;24.60;7.67;;;10.50;99.90;;;;;;4915353;29;20541;-71
2022/03/30 09:08:25;;;;;;;29.40;8.43;;;10.50;99.90;;;;;;4928806;29;20058;-72
2022/03/30 09:10:59;;;;;;;24.52;8.25;;;10.50;99.90;;;;;;4931384;29;20134;-73
2022/03/30 09:13:31;;;;;;;30.30;6.72;;;10.50;99.90;;;;;;4929275;29;20123;-72
2022/03/30 09:16:09;;;;;;;34.30;10.03;;;10.40;99.90;;;;;;4915119;29;20491;-71
2022/03/30 09:18:41;;;;;;;27.00;9.40;;;10.30;99.90;;;;;;4915143;29;20350;-72
2022/03/30 09:21:13;;;;;;;44.55;9.05;;;10.30;99.90;;;;;;4930550;29;20404;-72
2022/03/30 09:23:49;;;;;;;26.40;7.30;;;10.30;99.90;;;;;;4930258;29;20410;-72
2022/03/30 09:26:21;;;;;;;25.98;7.38;;;10.20;99.90;;;;;;4925080;29;20054;-72
2022/03/30 09:28:53;;;;;;;20.90;7.10;;;10.30;99.90;;;;;;4920656;29;20066;-72
2022/03/30 09:31:27;;;;;;;28.30;6.95;;;10.40;99.90;;;;;;4913417;29;20468;-72
2022/03/30 09:34:01;;;;;;;22.55;6.35;;;10.50;99.90;;;;;;4914724;29;20452;-72
2022/03/30 09:36:34;;;;;;;;;;;10.50;99.90;;;;;;4914197;29;20123;-72
2022/03/30 09:39:09;;;;;;;23.65;7.40;;;10.50;99.90;;;;;;4913530;29;19931;-72
2022/03/30 09:41:49;;;;;;;26.10;8.13;;;10.50;99.90;;;;;;4897930;29;20412;-72
2022/03/30 09:44:21;;;;;;;23.00;8.10;;;10.60;99.90;;;;;;4898305;29;20143;-72
2022/03/30 09:47:03;;;;;;;25.77;9.18;;;10.50;99.90;;;;;;4914627;29;20052;-72
2022/03/30 09:49:42;;;;;;;23.52;7.50;;;10.50;99.90;;;;;;4914526;29;20048;-72
2022/03/30 09:52:13;;;;;;;20.48;7.07;;;10.50;99.90;;;;;;4897051;29;20411;-72
2022/03/30 09:54:49;;;;;;;20.52;7.70;;;10.50;99.90;;;;;;4898204;29;20050;-72
2022/03/30 09:57:42;;;;;;;23.23;8.40;;;10.60;99.90;;;;;;4913128;29;20055;-72
2022/03/30 10:00:18;;;;;;;22.88;7.32;;;10.60;99.90;;;;;;4913098;29;20055;-72
2022/03/30 10:02:52;;;;;;;30.58;9.35;;;10.60;99.90;;;;;;4897732;29;20136;-72
2022/03/30 10:05:21;;;;;;;23.08;9.95;;;10.60;99.90;;;;;;4914264;29;20044;-72
2022/03/30 10:07:55;;;;;;;25.95;9.82;;;10.70;99.90;;;;;;4898303;29;20052;-72
2022/03/30 10:10:26;;;;;;;27.15;10.20;;;10.80;99.90;;;;;;4921023;29;20103;-72
2022/03/30 10:12:58;;;;;;;27.92;9.25;;;10.80;99.90;;;;;;4929215;29;20070;-72
2022/03/30 10:15:31;;;;;;;25.63;10.02;;;10.80;99.90;;;;;;4929560;29;20047;-72
2022/03/30 10:18:03;;;;;;;26.77;9.85;;;10.90;99.90;;;;;;4930763;29;20050;-72
2022/03/30 10:20:35;;;;;;;21.20;9.20;;;11.00;99.90;;;;;;4929508;29;20047;-72
2022/03/30 10:23:33;;;;;;;23.42;9.55;;;11.10;99.90;;;;;;4914134;29;20072;-72
2022/03/30 10:26:08;;;;;;;24.92;10.38;;;11.10;99.90;;;;;;4912560;29;20050;-72
2022/03/30 10:28:40;;;;;;;21.70;9.38;;;11.10;99.90;;;;;;4929774;29;20058;-72
2022/03/30 10:31:12;;;;;;;25.85;9.95;;;10.90;99.90;;;;;;4928999;29;20039;-72
2022/03/30 10:33:44;;;;;;;26.73;8.80;;;10.90;99.90;;;;;;4930492;29;20040;-72
2022/03/30 10:36:32;;;;;;;27.77;10.18;;;10.80;99.90;;;;;;4930948;29;20114;-72
2022/03/30 10:39:16;;;;;;;28.05;11.90;;;10.70;99.90;;;;;;4914305;29;20044;-72
2022/03/30 10:41:50;;;;;;;;;;;10.80;99.90;;;;;;4929630;29;20055;-72
2022/03/30 10:44:45;;;;;;;18.75;8.80;;;10.80;99.90;;;;;;4927831;29;19922;-72
2022/03/30 10:47:20;;;;;;;28.75;9.93;;;10.80;99.90;;;;;;4926858;29;20406;-72
2022/03/30 10:49:52;;;;;;;15.68;7.32;;;10.80;99.90;;;;;;4930538;29;20463;-72
2022/03/30 10:52:42;;;;;;;22.55;9.32;;;10.70;99.90;;;;;;4913553;29;20474;-72
2022/03/30 10:55:13;;;;;;;24.75;8.60;;;10.80;99.90;;;;;;4909550;29;20044;-71
2022/03/30 10:57:49;;;;;;;27.23;10.65;;;10.70;99.90;;;;;;4912724;29;20037;-71
2022/03/30 11:00:27;;;;;;;19.90;10.00;;;10.70;99.90;;;;;;4911516;29;20062;-71
2022/03/30 11:03:11;;;;;;;19.95;9.40;;;10.60;99.90;;;;;;4912155;29;20118;-71
2022/03/30 11:06:05;;;;;;;19.90;8.93;;;10.70;99.90;;;;;;4914154;29;20131;-71
2022/03/30 11:08:38;;;;;;;23.83;9.55;;;10.70;99.90;;;;;;4912763;29;20048;-71
2022/03/30 11:11:29;;;;;;;18.08;8.98;;;10.60;99.90;;;;;;4897650;29;20100;-71
2022/03/30 11:14:25;;;;;;;23.83;8.13;;;10.60;99.90;;;;;;4897201;29;20047;-71
2022/03/30 11:17:05;;;;;;;16.52;7.22;;;10.60;99.90;;;;;;4913075;29;20747;-71
2022/03/30 11:19:55;;;;;;;20.08;8.10;;;10.60;99.90;;;;;;4914218;29;20122;-71
2022/03/30 11:22:36;;;;;;;15.52;6.85;;;10.60;99.90;;;;;;4914762;29;20048;-71
2022/03/30 11:25:23;;;;;;;16.27;8.60;;;10.50;99.90;;;;;;4916283;29;20056;-71
2022/03/30 11:28:01;;;;;;;12.85;7.47;;;10.60;99.90;;;;;;4917404;29;20044;-71
2022/03/30 11:30:38;;;;;;;14.07;7.10;;;10.50;99.90;;;;;;4915843;29;20070;-71
2022/03/30 11:33:13;;;;;;;16.38;7.45;;;10.50;99.90;;;;;;4923944;29;20047;-70
2022/03/30 11:35:43;;;;;;;20.60;7.55;;;10.40;99.90;;;;;;4933768;29;20114;-70
2022/03/30 11:38:15;;;;;;;15.10;7.20;;;10.30;99.90;;;;;;4931881;29;20493;-71
2022/03/30 11:40:44;;;;;;;14.88;7.22;;;10.30;99.90;;;;;;4926555;29;20130;-71
2022/03/30 11:43:19;;;;;;;15.13;6.63;;;10.30;99.90;;;;;;4931075;29;20071;-70
2022/03/30 11:45:51;;;;;;;16.52;6.95;;;10.30;99.90;;;;;;4916238;29;20095;-71
2022/03/30 11:48:23;;;;;;;11.88;6.55;;;10.30;99.90;;;;;;4933151;29;20044;-70
2022/03/30 11:50:58;;;;;;;13.48;6.47;;;10.30;99.90;;;;;;4925662;29;20043;-70
2022/03/30 11:53:32;;;;;;;18.10;8.07;;;10.30;99.90;;;;;;4931697;29;20036;-71
2022/03/30 11:56:08;;;;;;;16.13;6.90;;;10.30;99.90;;;;;;4931024;29;20047;-71
2022/03/30 11:58:43;;;;;;;17.42;7.20;;;10.30;99.90;;;;;;4932183;29;20054;-70
2022/03/30 12:01:16;;;;;;;12.50;6.18;;;10.30;99.90;;;;;;4931654;29;20515;-70
2022/03/30 12:03:53;;;;;;;11.70;5.40;;;10.20;99.90;;;;;;4930763;29;20052;-71
2022/03/30 12:06:25;;;;;;;16.73;6.60;;;10.20;99.90;;;;;;4930913;29;20291;-71
2022/03/30 12:08:58;;;;;;;11.98;6.38;;;10.30;99.90;;;;;;4918092;29;20047;-70
2022/03/30 12:11:30;;;;;;;14.73;6.50;;;10.30;99.90;;;;;;4917944;29;20152;-70
2022/03/30 12:14:02;;;;;;;13.50;6.80;;;10.20;99.90;;;;;;4927919;29;20047;-70
2022/03/30 12:16:34;;;;;;;12.70;7.75;;;10.20;99.90;;;;;;4933829;29;20066;-71
2022/03/30 12:19:08;;;;;;;16.88;9.02;;;10.10;99.90;;;;;;4933214;29;20474;-70
2022/03/30 12:21:40;;;;;;;12.82;8.75;;;10.10;99.90;;;;;;4933740;29;20047;-71
2022/03/30 12:24:16;;;;;;;14.13;9.55;;;10.00;99.90;;;;;;4933093;29;20043;-71
2022/03/30 12:26:52;;;;;;;16.33;8.27;;;9.90;99.90;;;;;;4917658;29;20659;-71
2022/03/30 12:29:24;;;;;;;15.02;8.10;;;9.80;99.90;;;;;;4934226;29;20454;-71
2022/03/30 12:31:57;;;;;;;13.33;7.50;;;9.70;99.90;;;;;;4914522;29;20048;-70
2022/03/30 12:34:34;;;;;;;14.23;7.15;;;9.70;99.90;;;;;;4914109;29;20319;-71
2022/03/30 12:37:07;;;;;;;12.93;8.18;;;9.70;99.90;;;;;;4915002;29;20051;-71
2022/03/30 12:39:43;;;;;;;13.93;7.43;;;9.70;99.90;;;;;;4912949;29;20476;-70
2022/03/30 12:42:23;;;;;;;14.23;8.30;;;9.70;99.90;;;;;;4913722;29;20040;-71
2022/03/30 12:44:58;;;;;;;13.15;8.63;;;9.80;99.90;;;;;;4914999;29;20048;-70
2022/03/30 12:47:33;;;;;;;14.15;8.75;;;9.80;99.90;;;;;;4914579;29;20492;-71
2022/03/30 12:50:09;;;;;;;14.07;8.55;;;9.70;99.90;;;;;;4914137;29;20040;-71
2022/03/30 12:52:48;;;;;;;13.88;9.13;;;9.70;99.90;;;;;;4915185;29;20072;-70
2022/03/30 12:55:20;;;;;;;17.65;10.27;;;9.70;99.90;;;;;;4914328;29;20076;-70
2022/03/30 12:58:19;;;;;;;20.60;11.77;;;9.70;99.90;;;;;;4915732;29;20680;-71
2022/03/30 13:00:55;;;;;;;24.45;12.95;;;9.70;99.90;;;;;;4914970;29;20036;-70
2022/03/30 13:03:31;;;;;;;24.05;14.43;;;9.70;99.90;;;;;;4915145;29;20071;-71
2022/03/30 13:06:19;;;;;;;23.63;13.95;;;9.70;99.90;;;;;;4895473;29;20530;-71
2022/03/30 13:09:12;;;;;;;25.77;15.45;;;9.70;99.90;;;;;;4895361;29;20052;-71
2022/03/30 13:11:52;;;;;;;29.48;17.02;;;9.70;99.90;;;;;;4896238;29;20092;-71
2022/03/30 13:14:27;;;;;;;25.98;15.18;;;9.60;99.90;;;;;;4895487;29;20040;-71
2022/03/30 13:17:09;;;;;;;30.02;15.98;;;9.70;99.90;;;;;;4896683;29;20041;-71